CIJ weather

Capitán Aníbal Arab Airport
Cobija, Pando Department, Bolivia

Public forecast

Using degrees Celsius for public forecast. Weather courtesy of forecast.io.

Current aviation weather report (METAR) for Capitán Aníbal Arab Airport

Report is more than 6 hours old.

Retrieved 2020/07/03 16:00 UTC (10 hours ago):

SLCO 031600Z 17008KT 9999 SCT020 BKN080 25/18 Q1015

Aviation forecast (TAF) for Capitán Aníbal Arab Airport

Retrieved 2020-07-04 00:48 UTC (1 hour ago):

TAF TAF SLCO 032200Z 0400/0424 00000KT 9999 FEW015 BKN080 TX26/0420Z TN15 /0410Z BECMG 0414/0417 15008KT SCT020 SCT080